createdAt,value
2022-11-29T00:01:08.036Z,2.40
2022-11-29T00:03:34.665Z,2.36
2022-11-29T00:06:06.207Z,2.41
2022-11-29T00:08:32.361Z,2.44
2022-11-29T00:11:04.151Z,2.44
2022-11-29T00:13:30.255Z,2.48
2022-11-29T00:15:56.378Z,2.45
2022-11-29T00:18:22.548Z,2.48
2022-11-29T00:20:48.656Z,2.46
2022-11-29T00:23:14.757Z,2.49
2022-11-29T06:48:07.613Z,2.34
2022-11-29T06:50:53.332Z,2.45
2022-11-29T06:53:45.349Z,2.52
2022-11-29T06:56:49.497Z,2.55
2022-11-29T06:59:37.940Z,2.51
2022-11-29T07:02:13.023Z,2.59
2022-11-29T07:05:11.436Z,2.51
2022-11-29T07:07:38.037Z,2.55
2022-11-29T07:10:05.621Z,2.48
2022-11-29T07:12:33.912Z,2.51
2022-11-29T07:15:00.280Z,2.48
2022-11-29T07:17:41.683Z,2.52
2022-11-29T07:20:26.555Z,2.61
2022-11-29T07:23:20.424Z,2.71
2022-11-29T07:26:11.240Z,2.72
2022-11-29T07:28:54.309Z,2.81
2022-11-29T07:31:54.334Z,2.90
2022-11-29T07:34:36.339Z,2.99
2022-11-29T07:37:28.878Z,3.07
2022-11-29T07:40:06.677Z,3.16
2022-11-29T07:43:07.013Z,3.19
2022-11-29T07:45:36.793Z,3.29
2022-11-29T07:48:04.091Z,3.28
2022-11-29T07:50:31.136Z,3.48
2022-11-29T07:52:57.769Z,3.60
2022-11-29T07:55:26.952Z,3.55
2022-11-29T07:57:53.373Z,3.67
2022-11-29T08:00:20.678Z,3.75
2022-11-29T08:02:48.045Z,3.81
2022-11-29T08:05:14.237Z,3.95
2022-11-29T08:07:41.417Z,3.83
2022-11-29T08:10:12.405Z,3.74
2022-11-29T08:12:43.930Z,3.75
2022-11-29T08:15:10.426Z,3.73
2022-11-29T08:17:39.667Z,3.72
2022-11-29T08:20:06.501Z,3.73
2022-11-29T08:22:32.785Z,3.79
2022-11-29T08:24:59.983Z,3.78
2022-11-29T08:27:26.402Z,3.70
2022-11-29T08:29:52.582Z,3.72
2022-11-29T08:32:18.703Z,3.74
2022-11-29T08:34:45.144Z,3.64
2022-11-29T08:37:11.503Z,3.60
2022-11-29T08:39:37.628Z,3.57
2022-11-29T08:42:04.015Z,3.61
2022-11-29T08:44:30.217Z,3.73
2022-11-29T08:47:15.160Z,3.92
2022-11-29T08:50:01.253Z,4.08
2022-11-29T08:52:47.205Z,4.04
2022-11-29T08:55:13.503Z,3.92
2022-11-29T08:57:40.862Z,3.82
2022-11-29T09:00:08.243Z,3.88
2022-11-29T09:02:34.547Z,3.89
2022-11-29T09:05:00.745Z,3.77
2022-11-29T09:07:26.900Z,3.79
2022-11-29T09:09:53.016Z,3.85
2022-11-29T09:12:19.142Z,3.88
2022-11-29T09:14:45.594Z,3.99
2022-11-29T09:17:12.075Z,3.91
2022-11-29T09:19:38.555Z,3.84
2022-11-29T09:22:04.671Z,3.87
2022-11-29T09:24:30.945Z,3.87
2022-11-29T09:26:57.117Z,3.81
2022-11-29T09:29:23.225Z,3.75
2022-11-29T09:31:49.372Z,4.00
2022-11-29T09:34:16.746Z,4.03
2022-11-29T09:36:45.724Z,4.11
2022-11-29T09:39:14.667Z,4.07
2022-11-29T09:42:22.306Z,4.05
2022-11-29T09:45:06.797Z,3.91
2022-11-29T09:48:24.015Z,4.10
2022-11-29T09:51:24.732Z,4.22
2022-11-29T09:54:18.999Z,4.36
2022-11-29T09:56:49.687Z,4.43
2022-11-29T09:59:28.938Z,4.35
2022-11-29T10:02:21.094Z,4.36
2022-11-29T10:04:56.720Z,4.30
2022-11-29T10:07:32.038Z,4.09
2022-11-29T10:10:09.047Z,4.12
2022-11-29T10:12:42.594Z,4.00
2022-11-29T10:15:18.398Z,4.19
2022-11-29T10:17:54.569Z,4.06
2022-11-29T10:20:24.419Z,4.15
2022-11-29T10:23:21.169Z,4.04
2022-11-29T10:25:49.917Z,4.13
2022-11-29T10:28:20.303Z,4.05
2022-11-29T10:30:47.046Z,4.03
2022-11-29T10:33:21.557Z,4.19
2022-11-29T10:35:50.862Z,4.21
2022-11-29T10:38:32.504Z,4.23
2022-11-29T10:41:12.268Z,4.20
2022-11-29T10:43:38.644Z,4.09
2022-11-29T10:46:10.468Z,4.05
2022-11-29T10:48:36.605Z,4.19
2022-11-29T10:51:03.659Z,4.40
2022-11-29T10:53:37.127Z,4.51
2022-11-29T10:56:19.873Z,4.33
2022-11-29T10:58:56.248Z,4.49
2022-11-29T11:01:22.833Z,4.23
2022-11-29T11:03:57.225Z,4.13
2022-11-29T11:06:27.461Z,4.13
2022-11-29T11:09:11.164Z,4.19
2022-11-29T11:11:38.367Z,4.17
2022-11-29T11:14:18.070Z,4.38
2022-11-29T11:16:44.327Z,4.26
2022-11-29T11:19:32.053Z,4.34
2022-11-29T11:22:00.747Z,4.44
2022-11-29T11:24:32.686Z,4.56
2022-11-29T11:27:00.232Z,4.53
2022-11-29T11:29:36.661Z,4.56
2022-11-29T11:32:04.443Z,4.50
2022-11-29T11:34:34.911Z,4.60
2022-11-29T11:37:31.472Z,4.58
2022-11-29T11:40:00.266Z,4.52
2022-11-29T11:42:37.085Z,4.55
2022-11-29T11:45:09.565Z,4.63
2022-11-29T11:47:42.477Z,4.66
2022-11-29T11:50:14.936Z,4.64
2022-11-29T11:52:50.360Z,4.65
2022-11-29T11:55:30.632Z,4.57
2022-11-29T11:58:09.358Z,4.49
2022-11-29T12:01:05.492Z,4.61
2022-11-29T12:03:38.411Z,4.64
2022-11-29T12:06:34.318Z,4.52
2022-11-29T12:09:16.549Z,4.49
2022-11-29T12:12:13.517Z,4.44
2022-11-29T12:14:58.301Z,4.52
2022-11-29T12:17:52.455Z,4.51
2022-11-29T12:20:32.860Z,4.45
2022-11-29T12:23:17.104Z,4.55
2022-11-29T12:26:05.566Z,4.56
2022-11-29T12:28:33.950Z,4.43
2022-11-29T12:31:02.845Z,4.46
2022-11-29T12:33:43.871Z,4.43
2022-11-29T12:36:10.021Z,4.39
2022-11-29T12:39:05.479Z,4.39
2022-11-29T12:41:47.255Z,4.37
2022-11-29T12:44:22.780Z,4.38
2022-11-29T12:47:34.158Z,4.46
2022-11-29T12:50:10.323Z,4.33
2022-11-29T12:52:47.389Z,4.24
2022-11-29T12:55:23.249Z,4.08
2022-11-29T12:58:04.496Z,4.12
2022-11-29T13:00:56.089Z,4.11
2022-11-29T13:03:28.858Z,4.12
2022-11-29T13:06:31.598Z,4.05
2022-11-29T13:09:26.148Z,4.16
2022-11-29T13:12:18.703Z,4.11
2022-11-29T13:15:01.612Z,4.12
2022-11-29T13:17:38.898Z,4.07
2022-11-29T13:20:25.193Z,4.14
2022-11-29T13:23:45.538Z,4.03
2022-11-29T13:26:17.512Z,3.98
2022-11-29T13:28:46.392Z,4.04
2022-11-29T13:31:17.343Z,4.05
2022-11-29T13:33:46.439Z,4.06
2022-11-29T13:36:28.503Z,4.08
2022-11-29T13:39:22.419Z,4.05
2022-11-29T13:42:15.756Z,4.01
2022-11-29T13:45:04.604Z,4.09
2022-11-29T13:47:30.735Z,4.12
2022-11-29T13:49:57.293Z,4.07
2022-11-29T13:52:26.655Z,3.91
2022-11-29T13:55:15.761Z,4.01
2022-11-29T13:58:20.692Z,4.01
2022-11-29T14:00:49.708Z,3.94
2022-11-29T14:03:18.666Z,3.90
2022-11-29T14:05:46.942Z,3.97
2022-11-29T14:09:02.442Z,4.06
2022-11-29T14:11:29.791Z,4.01
2022-11-29T14:14:10.024Z,3.86
2022-11-29T14:16:41.928Z,3.89
2022-11-29T14:19:08.034Z,3.91
2022-11-29T14:22:12.939Z,3.97
2022-11-29T14:24:40.285Z,3.90
2022-11-29T14:27:06.370Z,3.96
2022-11-29T14:29:47.747Z,3.89
2022-11-29T14:33:03.663Z,3.79
2022-11-29T14:35:39.544Z,3.87
2022-11-29T14:38:25.083Z,3.82
2022-11-29T14:41:03.676Z,3.83
2022-11-29T14:43:34.208Z,3.88
2022-11-29T14:46:15.691Z,3.81
2022-11-29T14:48:47.027Z,3.79
2022-11-29T14:51:16.261Z,3.74
2022-11-29T14:53:44.785Z,3.71
2022-11-29T14:56:29.066Z,3.72
2022-11-29T14:59:32.776Z,3.72
2022-11-29T15:02:07.503Z,3.73
2022-11-29T15:04:35.850Z,3.75
2022-11-29T15:07:03.565Z,3.70
2022-11-29T15:09:33.413Z,3.65
2022-11-29T15:12:06.996Z,3.63
2022-11-29T15:14:48.939Z,3.61
2022-11-29T15:17:32.079Z,3.64
2022-11-29T15:20:11.753Z,3.72
2022-11-29T15:22:48.079Z,3.72
2022-11-29T15:25:31.065Z,3.73
2022-11-29T15:28:03.076Z,3.69
2022-11-29T15:30:34.852Z,3.66
2022-11-29T15:33:04.542Z,3.62
2022-11-29T15:35:33.756Z,3.61
2022-11-29T15:38:00.290Z,3.54
2022-11-29T15:40:39.583Z,3.58
2022-11-29T15:43:14.671Z,3.63
2022-11-29T15:45:47.672Z,3.60
2022-11-29T15:48:17.876Z,3.61
2022-11-29T15:50:51.899Z,3.64
2022-11-29T15:53:44.157Z,3.62
2022-11-29T15:56:35.837Z,3.66
2022-11-29T15:59:09.048Z,3.67
2022-11-29T16:01:37.192Z,3.66
2022-11-29T16:04:03.645Z,3.64
2022-11-29T16:06:40.751Z,3.62
2022-11-29T16:09:12.576Z,3.62
2022-11-29T16:11:39.410Z,3.65
2022-11-29T16:14:11.706Z,3.66
2022-11-29T16:16:39.993Z,3.58
2022-11-29T16:19:26.293Z,3.64
2022-11-29T16:22:07.521Z,3.69
2022-11-29T16:24:34.597Z,3.74
2022-11-29T16:27:01.699Z,3.67
2022-11-29T16:29:31.102Z,3.62
2022-11-29T16:31:57.746Z,3.55
2022-11-29T16:34:31.241Z,3.57
2022-11-29T16:37:07.089Z,3.58
2022-11-29T16:39:38.746Z,3.60
2022-11-29T16:42:19.390Z,3.63
2022-11-29T16:45:02.224Z,3.62
2022-11-29T16:47:57.959Z,3.64
2022-11-29T16:50:26.504Z,3.67
2022-11-29T16:52:56.518Z,3.72
2022-11-29T16:55:23.106Z,3.74
2022-11-29T16:57:49.564Z,3.83
2022-11-29T17:00:31.662Z,3.88
2022-11-29T17:02:58.409Z,3.86
2022-11-29T17:05:24.667Z,3.81
2022-11-29T17:07:51.246Z,3.77
2022-11-29T17:10:22.073Z,3.79
2022-11-29T17:12:48.644Z,3.68
2022-11-29T17:15:14.911Z,3.68
2022-11-29T17:17:43.350Z,3.69
2022-11-29T17:20:11.737Z,3.71
2022-11-29T17:22:37.887Z,3.73
2022-11-29T17:25:04.551Z,3.80
2022-11-29T17:27:30.712Z,3.84
2022-11-29T17:29:56.885Z,3.86
2022-11-29T17:32:26.641Z,3.91
2022-11-29T17:34:53.322Z,3.85
2022-11-29T17:37:19.517Z,3.84
2022-11-29T17:39:48.162Z,3.92
2022-11-29T17:42:14.662Z,3.91
2022-11-29T17:44:41.130Z,3.92
2022-11-29T17:47:07.258Z,3.92
2022-11-29T17:49:33.409Z,3.94
2022-11-29T17:51:59.536Z,3.79
2022-11-29T17:54:25.708Z,3.75
2022-11-29T17:56:52.054Z,3.67
2022-11-29T17:59:18.190Z,3.60
2022-11-29T18:01:47.210Z,3.63
2022-11-29T18:04:13.592Z,3.58
2022-11-29T18:06:40.679Z,3.55
2022-11-29T18:09:09.113Z,3.53
2022-11-29T18:11:45.313Z,3.61
2022-11-29T18:14:16.142Z,3.61
2022-11-29T18:16:42.570Z,3.67
2022-11-29T18:19:12.723Z,3.55
2022-11-29T18:21:39.236Z,3.57
2022-11-29T18:24:07.084Z,3.48
2022-11-29T18:26:34.137Z,3.56
2022-11-29T18:29:00.977Z,3.61
2022-11-29T18:31:32.820Z,3.58
2022-11-29T18:34:01.068Z,3.54
2022-11-29T18:36:32.555Z,3.54
2022-11-29T18:39:01.099Z,3.58
2022-11-29T18:41:29.231Z,3.51
2022-11-29T18:44:00.551Z,3.57
2022-11-29T18:46:32.263Z,3.49
2022-11-29T18:49:01.124Z,3.54
2022-11-29T18:51:28.939Z,3.53
2022-11-29T18:53:55.378Z,3.53
2022-11-29T18:56:23.250Z,3.47
2022-11-29T18:58:58.381Z,3.45
2022-11-29T19:01:25.987Z,3.48
2022-11-29T19:03:54.362Z,3.50
2022-11-29T19:06:23.465Z,3.48
2022-11-29T19:08:49.931Z,3.47
2022-11-29T19:11:21.592Z,3.40
2022-11-29T19:13:51.782Z,3.40
2022-11-29T19:16:19.312Z,3.40
2022-11-29T19:18:45.836Z,3.35
2022-11-29T19:21:14.801Z,3.30
2022-11-29T19:23:42.274Z,3.29
2022-11-29T19:26:13.880Z,3.32
2022-11-29T19:28:42.424Z,3.30
2022-11-29T19:31:10.643Z,3.26
2022-11-29T19:33:38.937Z,3.28
2022-11-29T19:36:12.927Z,3.25
2022-11-29T19:38:40.390Z,3.27
2022-11-29T19:41:17.364Z,3.29
2022-11-29T19:43:43.972Z,3.27
2022-11-29T19:46:15.539Z,3.31
2022-11-29T19:48:41.899Z,3.30
2022-11-29T19:51:09.446Z,3.28
2022-11-29T19:53:35.719Z,3.21
2022-11-29T19:56:10.718Z,3.15
2022-11-29T19:58:36.853Z,3.15
2022-11-29T20:01:10.269Z,3.21
2022-11-29T20:03:36.482Z,3.20
2022-11-29T20:06:03.032Z,3.13
2022-11-29T20:08:29.793Z,3.11
2022-11-29T20:10:56.112Z,3.00
2022-11-29T20:13:22.549Z,3.03
2022-11-29T20:15:48.767Z,3.04
2022-11-29T20:18:14.981Z,3.03
2022-11-29T20:20:41.109Z,3.04
2022-11-29T20:23:07.219Z,3.07
2022-11-29T20:25:33.827Z,2.97
2022-11-29T20:27:59.942Z,3.00
2022-11-29T20:30:26.161Z,2.99
2022-11-29T20:32:52.379Z,3.03
2022-11-29T20:35:19.011Z,3.05
2022-11-29T20:38:03.538Z,3.04
2022-11-29T20:40:46.378Z,3.04
2022-11-29T20:43:39.498Z,3.05
2022-11-29T20:46:05.962Z,3.00
2022-11-29T20:48:32.284Z,2.99
2022-11-29T20:51:00.978Z,2.99
2022-11-29T20:53:35.387Z,2.94
2022-11-29T20:56:02.081Z,2.99
2022-11-29T20:58:28.232Z,2.95
2022-11-29T21:00:55.329Z,2.92
2022-11-29T21:03:22.348Z,3.01
2022-11-29T21:05:48.950Z,3.07
2022-11-29T21:08:16.968Z,3.09
2022-11-29T21:10:43.165Z,3.14
2022-11-29T21:13:11.529Z,3.19
2022-11-29T21:15:39.144Z,3.17
2022-11-29T21:18:05.604Z,3.13
2022-11-29T21:20:31.937Z,3.13
2022-11-29T21:23:35.713Z,3.14
2022-11-29T21:26:13.414Z,3.11
2022-11-29T21:28:51.169Z,3.14
2022-11-29T21:31:18.039Z,3.15
2022-11-29T21:33:44.609Z,3.18
2022-11-29T21:36:11.940Z,3.19
2022-11-29T21:38:38.755Z,3.20
2022-11-29T21:41:04.952Z,3.21
2022-11-29T21:44:04.234Z,3.23
2022-11-29T21:46:17.262Z,3.23
2022-11-29T21:48:44.471Z,3.23
2022-11-29T21:51:11.964Z,3.25
2022-11-29T21:53:39.371Z,3.23
2022-11-29T21:56:08.138Z,3.25
2022-11-29T21:58:35.940Z,3.18
2022-11-29T22:01:14.839Z,3.13
2022-11-29T22:03:42.221Z,3.10
2022-11-29T22:06:18.699Z,3.13
2022-11-29T22:08:44.867Z,3.18
2022-11-29T22:11:16.199Z,3.19
2022-11-29T22:14:02.529Z,3.18
2022-11-29T22:16:30.158Z,3.24
2022-11-29T22:18:56.395Z,3.21
2022-11-29T22:21:23.071Z,3.15
2022-11-29T22:23:49.291Z,3.09
2022-11-29T22:26:15.410Z,3.10
2022-11-29T22:28:41.542Z,3.15
2022-11-29T22:31:12.204Z,3.14
2022-11-29T22:33:38.928Z,3.14
2022-11-29T22:36:10.256Z,3.09
2022-11-29T22:38:37.283Z,3.03
2022-11-29T22:41:10.014Z,3.07
2022-11-29T22:43:36.707Z,3.08
2022-11-29T22:46:05.224Z,3.06
2022-11-29T22:48:37.005Z,3.10
2022-11-29T22:51:28.091Z,3.08
2022-11-29T22:53:56.576Z,3.07
2022-11-29T22:56:24.944Z,3.04
2022-11-29T22:58:51.276Z,3.06
2022-11-29T23:01:20.226Z,3.01
2022-11-29T23:03:51.816Z,3.02
2022-11-29T23:06:20.648Z,2.95
2022-11-29T23:08:48.588Z,2.96
2022-11-29T23:11:29.602Z,2.96
2022-11-29T23:13:55.727Z,3.01
2022-11-29T23:16:26.831Z,3.07
2022-11-29T23:18:54.460Z,3.00
2022-11-29T23:21:22.155Z,2.98
2022-11-29T23:23:54.466Z,2.93
2022-11-29T23:26:26.034Z,2.97
2022-11-29T23:28:53.041Z,2.89
2022-11-29T23:31:20.303Z,2.97
2022-11-29T23:33:46.445Z,2.97
2022-11-29T23:36:13.780Z,2.92
2022-11-29T23:38:40.064Z,2.98
2022-11-29T23:41:08.217Z,2.88
2022-11-29T23:43:36.385Z,2.87
2022-11-29T23:46:12.659Z,2.85
2022-11-29T23:48:38.991Z,2.81
2022-11-29T23:51:05.133Z,2.84
2022-11-29T23:53:31.232Z,2.87
2022-11-29T23:56:02.213Z,2.85
2022-11-29T23:58:30.057Z,2.84
